Time;durP1;ratioP1;P1;durP2;ratioP2;P2;SDS_P1;SDS_P2;PMS_P1;PMS_P2;Temp;Humidity;BMP_temperature;BMP_pressure;BME280_temperature;BME280_humidity;BME280_pressure;Samples;Min_cycle;Max_cycle;Signal;HPM_P1;HPM_P2
2022/03/31 00:00:15;;;;;;;12.88;7.30;;;13.90;65.80;;;;;;5010773;28;20103;-79
2022/03/31 00:02:40;;;;;;;12.75;7.25;;;13.90;65.80;;;;;;4992926;28;20038;-77
2022/03/31 00:05:06;;;;;;;15.52;7.63;;;13.90;65.80;;;;;;4992788;28;20034;-82
2022/03/31 00:07:32;;;;;;;79.13;11.48;;;13.90;65.80;;;;;;4992534;28;20488;-78
2022/03/31 00:09:57;;;;;;;22.67;8.05;;;13.90;65.90;;;;;;4992930;28;20500;-78
2022/03/31 00:12:23;;;;;;;17.27;7.43;;;13.90;65.90;;;;;;4992796;28;20033;-77
2022/03/31 00:14:48;;;;;;;13.65;7.78;;;13.90;65.90;;;;;;5010549;28;20066;-77
2022/03/31 00:17:14;;;;;;;14.07;7.00;;;13.90;65.90;;;;;;4992150;28;20499;-77
2022/03/31 00:19:40;;;;;;;15.45;7.47;;;13.90;65.90;;;;;;4992650;28;20559;-80
2022/03/31 00:22:05;;;;;;;13.80;7.10;;;13.80;65.90;;;;;;4992487;28;20065;-77
2022/03/31 00:24:31;;;;;;;12.63;7.30;;;13.90;65.90;;;;;;4993674;28;20073;-78
2022/03/31 00:26:56;;;;;;;12.32;7.00;;;13.90;65.90;;;;;;5009518;28;20033;-79
2022/03/31 00:29:22;;;;;;;11.05;6.65;;;13.80;66.00;;;;;;4992715;28;20022;-76
2022/03/31 00:31:48;;;;;;;11.48;7.40;;;13.80;65.90;;;;;;4992525;28;20454;-78
2022/03/31 00:34:13;;;;;;;12.13;6.97;;;13.80;66.00;;;;;;5010165;28;20105;-77
2022/03/31 00:36:39;;;;;;;15.52;7.07;;;13.90;66.10;;;;;;5009336;28;20025;-79
2022/03/31 00:41:49;;;;;;;11.70;6.78;;;13.80;66.00;;;;;;5010294;28;20133;-76
2022/03/31 00:44:14;;;;;;;11.50;7.13;;;13.80;66.00;;;;;;4992078;28;20478;-76
2022/03/31 00:46:51;;;;;;;10.48;6.55;;;13.80;66.00;;;;;;5009578;28;20485;-77
2022/03/31 00:49:17;;;;;;;9.57;6.50;;;13.80;66.00;;;;;;4991990;28;20485;-76
2022/03/31 00:51:43;;;;;;;10.07;6.63;;;13.80;66.00;;;;;;4992168;28;20195;-76
2022/03/31 00:54:09;;;;;;;9.35;6.78;;;13.80;66.00;;;;;;4991282;28;20650;-77
2022/03/31 00:56:35;;;;;;;10.63;6.65;;;13.80;66.10;;;;;;4991570;28;20030;-77
2022/03/31 00:59:06;;;;;;;11.15;7.03;;;13.80;66.60;;;;;;5009051;28;20156;-77
2022/03/31 01:01:32;;;;;;;12.45;7.07;;;13.80;66.00;;;;;;4991992;28;20041;-76
2022/03/31 01:04:00;;;;;;;12.18;6.93;;;13.80;66.10;;;;;;5009387;28;20381;-77
2022/03/31 01:06:26;;;;;;;10.85;6.43;;;13.80;66.10;;;;;;4991502;28;20022;-76
2022/03/31 01:08:51;;;;;;;10.70;6.35;;;13.80;66.10;;;;;;5009170;28;20033;-76
2022/03/31 01:11:17;;;;;;;13.45;7.40;;;13.80;66.10;;;;;;4991852;28;20115;-79
2022/03/31 01:13:43;;;;;;;11.65;6.75;;;13.80;66.10;;;;;;4991824;28;20184;-80
2022/03/31 01:16:08;;;;;;;11.18;6.75;;;13.80;66.10;;;;;;4991395;28;20117;-77
2022/03/31 01:18:34;;;;;;;10.77;6.97;;;13.80;66.10;;;;;;4991450;28;20488;-77
2022/03/31 01:21:01;;;;;;;10.65;6.75;;;13.80;66.10;;;;;;4991502;28;20094;-77
2022/03/31 01:23:27;;;;;;;9.75;6.72;;;13.80;66.20;;;;;;5009150;28;20022;-77
2022/03/31 01:25:53;;;;;;;11.45;7.15;;;13.80;66.20;;;;;;5009255;28;20034;-77
2022/03/31 01:28:18;;;;;;;10.60;7.15;;;13.80;66.20;;;;;;5009052;28;20125;-76
2022/03/31 01:30:44;;;;;;;10.65;6.97;;;13.80;66.20;;;;;;4988238;28;20026;-79
2022/03/31 01:33:11;;;;;;;10.15;6.63;;;13.80;66.20;;;;;;4988398;28;20031;-77
2022/03/31 01:35:36;;;;;;;11.52;7.40;;;13.80;66.20;;;;;;4991167;28;20129;-78
2022/03/31 01:38:02;;;;;;;10.57;7.20;;;13.80;66.20;;;;;;5008610;28;20104;-76
2022/03/31 01:40:27;;;;;;;11.18;6.50;;;13.80;66.20;;;;;;4991467;28;20469;-77
2022/03/31 01:42:53;;;;;;;11.13;6.80;;;13.80;66.20;;;;;;4991367;28;20036;-77
2022/03/31 01:45:18;;;;;;;10.70;7.13;;;13.80;66.20;;;;;;5008669;28;20025;-78
2022/03/31 01:47:45;;;;;;;10.00;6.72;;;13.80;66.20;;;;;;4991173;28;20026;-76
2022/03/31 01:50:11;;;;;;;10.35;6.68;;;13.80;66.20;;;;;;4991070;28;20060;-77
2022/03/31 01:52:38;;;;;;;12.27;7.22;;;13.80;66.30;;;;;;5008873;28;20083;-77
2022/03/31 01:55:04;;;;;;;10.18;6.65;;;13.80;66.30;;;;;;4991049;28;20026;-77
2022/03/31 01:57:30;;;;;;;10.85;6.63;;;13.80;66.30;;;;;;4990716;28;20092;-77
2022/03/31 01:59:55;;;;;;;10.07;6.40;;;13.80;66.30;;;;;;4990870;28;20026;-77
2022/03/31 02:02:22;;;;;;;11.60;6.93;;;13.80;66.30;;;;;;4991101;28;20032;-77
2022/03/31 02:04:47;;;;;;;10.52;6.30;;;13.80;66.40;;;;;;4990711;28;20025;-80
2022/03/31 02:07:13;;;;;;;10.23;6.97;;;13.70;66.30;;;;;;4993535;28;20507;-77
2022/03/31 02:09:39;;;;;;;9.65;5.97;;;13.80;66.40;;;;;;5012615;28;20400;-76
2022/03/31 02:12:06;;;;;;;9.57;6.63;;;13.70;66.90;;;;;;4995005;28;20052;-77
2022/03/31 02:14:37;;;;;;;9.82;6.32;;;13.70;66.40;;;;;;4994824;28;20480;-77
2022/03/31 02:17:13;;;;;;;10.95;7.22;;;13.70;66.40;;;;;;5012118;28;20404;-77
2022/03/31 02:19:38;;;;;;;10.52;6.50;;;13.70;66.40;;;;;;5012490;28;20030;-78
2022/03/31 02:22:05;;;;;;;10.23;6.50;;;13.70;66.40;;;;;;4994988;28;20018;-77
2022/03/31 02:24:31;;;;;;;9.48;6.32;;;13.70;66.50;;;;;;4994536;28;20042;-79
2022/03/31 02:26:57;;;;;;;10.35;6.78;;;13.70;66.50;;;;;;5011901;28;20026;-77
2022/03/31 02:29:23;;;;;;;10.00;6.32;;;13.80;66.50;;;;;;5012572;28;20753;-79
2022/03/31 02:31:49;;;;;;;10.10;6.47;;;13.70;66.50;;;;;;4994848;28;20030;-75
2022/03/31 02:34:15;;;;;;;9.13;6.35;;;13.70;66.50;;;;;;4994694;28;20037;-76
2022/03/31 02:36:42;;;;;;;9.98;6.50;;;13.70;66.50;;;;;;4994523;28;20029;-78
2022/03/31 02:39:08;;;;;;;9.93;6.28;;;13.70;66.50;;;;;;5012061;28;20038;-79
2022/03/31 02:41:35;;;;;;;9.18;6.57;;;13.70;66.50;;;;;;4992621;28;20477;-77
2022/03/31 02:44:00;;;;;;;10.40;6.28;;;13.70;66.60;;;;;;4990907;28;20093;-82
2022/03/31 02:46:27;;;;;;;11.30;6.55;;;13.70;66.60;;;;;;5009590;28;20026;-77
2022/03/31 02:48:54;;;;;;;10.55;5.90;;;13.70;66.60;;;;;;4994244;28;20034;-79
2022/03/31 02:51:21;;;;;;;12.07;6.15;;;13.70;66.60;;;;;;4994119;28;20169;-77
2022/03/31 02:56:31;;;;;;;10.02;6.57;;;13.70;66.70;;;;;;5012057;28;20444;-78
2022/03/31 02:58:57;;;;;;;9.75;6.30;;;13.70;66.70;;;;;;4993779;28;20065;-78
2022/03/31 03:01:22;;;;;;;9.63;6.07;;;13.70;66.60;;;;;;4994465;28;20026;-76
2022/03/31 03:03:50;;;;;;;9.52;6.35;;;13.70;66.70;;;;;;5011596;28;20069;-80
2022/03/31 03:06:16;;;;;;;11.50;6.30;;;13.70;66.70;;;;;;4994057;28;20025;-76
2022/03/31 03:08:42;;;;;;;11.50;6.93;;;13.70;66.70;;;;;;5011400;28;20033;-77
2022/03/31 03:11:08;;;;;;;9.23;5.95;;;13.70;66.70;;;;;;4993862;28;20030;-77
2022/03/31 03:13:35;;;;;;;9.93;6.35;;;13.70;66.70;;;;;;4993923;28;20548;-76
2022/03/31 03:16:05;;;;;;;9.95;6.28;;;13.70;66.70;;;;;;4993780;28;20500;-77
2022/03/31 03:18:31;;;;;;;10.88;5.80;;;13.70;66.70;;;;;;4992725;28;20033;-77
2022/03/31 03:20:56;;;;;;;11.02;6.28;;;13.70;66.70;;;;;;4993717;28;20026;-77
2022/03/31 03:23:22;;;;;;;9.75;5.82;;;13.70;66.80;;;;;;4993664;28;20018;-78
2022/03/31 03:25:47;;;;;;;9.20;6.05;;;13.70;66.80;;;;;;4993522;28;20079;-76
2022/03/31 03:28:13;;;;;;;8.65;6.00;;;13.70;66.80;;;;;;4993232;28;20033;-76
2022/03/31 03:30:38;;;;;;;9.60;6.10;;;13.70;66.70;;;;;;5011013;28;20026;-77
2022/03/31 03:33:05;;;;;;;8.43;5.80;;;13.70;66.80;;;;;;5011188;28;20048;-77
2022/03/31 03:35:31;;;;;;;9.82;6.22;;;13.70;66.80;;;;;;4993130;28;20481;-80
2022/03/31 03:37:57;;;;;;;8.88;6.40;;;13.70;66.80;;;;;;4993412;28;20116;-77
2022/03/31 03:40:22;;;;;;;9.90;6.53;;;13.70;66.80;;;;;;5011129;28;20057;-77
2022/03/31 03:42:48;;;;;;;9.48;6.15;;;13.70;66.80;;;;;;4993417;28;20026;-77
2022/03/31 03:45:14;;;;;;;10.95;6.78;;;13.70;66.80;;;;;;5010551;28;20022;-77
2022/03/31 03:47:40;;;;;;;8.68;6.28;;;13.70;66.90;;;;;;5010583;28;20033;-76
2022/03/31 03:50:06;;;;;;;9.35;6.13;;;13.60;66.90;;;;;;4993380;28;20087;-81
2022/03/31 03:52:32;;;;;;;9.98;6.57;;;13.70;66.90;;;;;;4993166;28;20036;-77
2022/03/31 03:54:58;;;;;;;10.23;6.68;;;13.70;66.90;;;;;;4993095;28;20508;-78
2022/03/31 03:57:23;;;;;;;9.00;6.30;;;13.70;66.90;;;;;;5010437;28;20034;-77
2022/03/31 03:59:49;;;;;;;9.35;6.38;;;13.60;66.80;;;;;;4992768;28;20030;-76
2022/03/31 04:02:15;;;;;;;9.73;6.50;;;13.70;66.90;;;;;;5010338;28;20097;-76
2022/03/31 04:04:40;;;;;;;8.95;6.28;;;13.70;66.90;;;;;;4992959;28;20028;-76
2022/03/31 04:07:06;;;;;;;9.80;6.00;;;13.60;66.90;;;;;;4992501;28;20105;-76
2022/03/31 04:09:31;;;;;;;11.00;6.55;;;13.70;67.00;;;;;;5010576;28;20098;-77
2022/03/31 04:11:57;;;;;;;9.85;6.20;;;13.60;67.00;;;;;;5010221;28;20938;-78
2022/03/31 04:14:22;;;;;;;11.30;6.28;;;13.60;67.00;;;;;;4992556;28;20038;-75
2022/03/31 04:16:48;;;;;;;9.93;6.53;;;13.60;67.00;;;;;;5009641;28;20052;-78
2022/03/31 04:19:14;;;;;;;10.98;6.43;;;13.60;67.00;;;;;;4992415;28;20100;-77
2022/03/31 04:21:40;;;;;;;10.90;6.63;;;13.60;67.00;;;;;;4992527;28;20501;-79
2022/03/31 04:24:06;;;;;;;12.05;6.97;;;13.60;67.00;;;;;;4992458;28;20022;-76
2022/03/31 04:26:32;;;;;;;11.43;6.45;;;13.60;67.00;;;;;;4992326;28;20057;-76
2022/03/31 04:28:58;;;;;;;11.32;6.40;;;13.60;67.00;;;;;;4992385;28;20061;-76
2022/03/31 04:31:24;;;;;;;10.35;6.97;;;13.60;67.10;;;;;;4992389;28;20116;-76
2022/03/31 04:33:50;;;;;;;10.73;6.50;;;13.60;67.10;;;;;;5010280;28;20457;-76
2022/03/31 04:36:16;;;;;;;10.73;6.72;;;13.60;67.10;;;;;;5009474;28;20036;-77
2022/03/31 04:38:42;;;;;;;10.20;6.40;;;13.60;67.20;;;;;;5009925;28;20060;-77
2022/03/31 04:41:07;;;;;;;10.85;6.47;;;13.60;67.20;;;;;;5012423;28;20503;-81
2022/03/31 04:43:33;;;;;;;9.50;6.50;;;13.60;67.20;;;;;;5014047;28;20065;-76
2022/03/31 04:45:58;;;;;;;11.13;6.45;;;13.60;67.20;;;;;;4992236;28;20025;-76
2022/03/31 04:48:24;;;;;;;10.15;6.93;;;13.60;67.20;;;;;;4991803;28;20068;-77
2022/03/31 04:50:49;;;;;;;9.70;6.65;;;13.60;67.20;;;;;;4992551;28;20030;-77
2022/03/31 04:53:17;;;;;;;10.57;6.80;;;13.60;67.20;;;;;;4992149;28;20021;-76
2022/03/31 04:55:42;;;;;;;12.18;6.80;;;13.60;67.30;;;;;;5009885;28;20041;-77
2022/03/31 04:58:08;;;;;;;11.35;6.82;;;13.60;67.30;;;;;;4990758;28;20484;-78
2022/03/31 05:00:33;;;;;;;9.25;6.70;;;13.60;67.30;;;;;;4991809;28;20416;-76
2022/03/31 05:02:59;;;;;;;11.80;6.75;;;13.60;67.30;;;;;;5009258;28;20072;-76
2022/03/31 05:05:25;;;;;;;10.63;7.13;;;13.60;67.30;;;;;;5009537;28;20022;-76
2022/03/31 05:07:51;;;;;;;11.02;6.47;;;13.60;67.30;;;;;;5009323;28;20145;-78
2022/03/31 05:10:17;;;;;;;11.10;6.97;;;13.60;67.40;;;;;;4991692;28;20045;-78
2022/03/31 05:12:43;;;;;;;12.60;7.47;;;13.60;67.40;;;;;;4991583;28;20386;-78
2022/03/31 05:15:09;;;;;;;11.40;7.35;;;13.60;67.40;;;;;;5009329;28;20037;-76
2022/03/31 05:17:35;;;;;;;12.40;7.30;;;13.60;67.40;;;;;;5009508;28;20140;-77
2022/03/31 05:20:10;;;;;;;18.08;7.15;;;13.60;67.50;;;;;;5010097;28;20735;-76
2022/03/31 05:22:40;;;;;;;12.55;7.03;;;13.60;67.50;;;;;;5008900;28;20049;-77
2022/03/31 05:25:08;;;;;;;10.80;6.93;;;13.60;67.50;;;;;;4993449;28;20117;-76
2022/03/31 05:27:40;;;;;;;11.57;6.53;;;13.60;67.50;;;;;;4991260;28;20025;-78
2022/03/31 05:30:06;;;;;;;12.48;6.82;;;13.60;67.60;;;;;;5010651;28;20113;-76
2022/03/31 05:32:32;;;;;;;11.93;7.32;;;13.60;67.60;;;;;;4992243;28;20465;-79
2022/03/31 05:34:57;;;;;;;9.77;6.95;;;13.60;67.60;;;;;;4993088;28;20026;-77
2022/03/31 05:37:23;;;;;;;11.98;7.25;;;13.60;67.50;;;;;;4992435;28;20392;-76
2022/03/31 05:39:49;;;;;;;11.50;7.20;;;13.60;67.50;;;;;;5010153;28;20039;-78
2022/03/31 05:42:15;;;;;;;10.00;7.00;;;13.60;67.60;;;;;;5009458;28;20531;-77
2022/03/31 05:44:40;;;;;;;10.90;6.85;;;13.60;67.60;;;;;;5010134;28;20097;-78
2022/03/31 05:47:06;;;;;;;9.32;7.10;;;13.60;67.60;;;;;;5009874;28;20036;-77
2022/03/31 05:49:31;;;;;;;10.13;6.68;;;13.60;67.60;;;;;;4992534;28;20164;-77
2022/03/31 05:51:57;;;;;;;10.38;6.95;;;13.60;67.60;;;;;;5009771;28;20396;-80
2022/03/31 05:54:23;;;;;;;11.00;7.10;;;13.50;67.50;;;;;;5009736;28;20045;-77
2022/03/31 05:56:48;;;;;;;9.45;6.50;;;13.60;67.70;;;;;;4991991;28;20032;-78
2022/03/31 05:59:15;;;;;;;9.07;6.53;;;13.60;67.70;;;;;;5009461;28;20057;-77
2022/03/31 06:01:41;;;;;;;10.27;6.90;;;13.60;67.70;;;;;;4981778;28;20101;-77
2022/03/31 06:04:07;;;;;;;10.93;7.30;;;13.60;67.70;;;;;;4984917;28;20049;-78
2022/03/31 06:06:32;;;;;;;10.32;7.18;;;13.60;67.70;;;;;;4989602;28;20099;-78
2022/03/31 06:08:58;;;;;;;9.85;6.80;;;13.60;67.70;;;;;;4972315;28;20031;-76
2022/03/31 06:11:24;;;;;;;9.75;6.78;;;13.60;67.70;;;;;;4989814;28;20061;-80
2022/03/31 06:13:49;;;;;;;11.15;6.88;;;13.60;67.70;;;;;;4972846;28;20034;-77
2022/03/31 06:16:15;;;;;;;11.00;7.53;;;13.60;67.80;;;;;;4989607;28;20077;-76
2022/03/31 06:18:41;;;;;;;10.77;7.10;;;13.60;67.80;;;;;;4989487;28;20817;-77
2022/03/31 06:21:06;;;;;;;11.18;6.68;;;13.60;67.80;;;;;;4972492;28;20370;-77
2022/03/31 06:23:32;;;;;;;10.80;7.20;;;13.60;67.80;;;;;;4989709;28;20093;-80
2022/03/31 06:25:58;;;;;;;10.15;6.93;;;13.50;67.70;;;;;;4973133;28;20018;-77
2022/03/31 06:28:25;;;;;;;11.30;6.90;;;13.60;67.80;;;;;;4989985;28;20379;-76
2022/03/31 06:30:51;;;;;;;11.32;7.32;;;13.60;67.80;;;;;;4973826;28;20031;-78
2022/03/31 06:33:17;;;;;;;9.77;6.88;;;13.60;67.70;;;;;;4972972;28;20022;-77
2022/03/31 06:35:44;;;;;;;10.68;7.18;;;13.60;67.70;;;;;;4989425;28;20034;-75
2022/03/31 06:38:11;;;;;;;11.18;7.63;;;13.60;67.70;;;;;;4988821;28;20046;-73
2022/03/31 06:40:37;;;;;;;11.95;8.00;;;13.60;67.70;;;;;;4990586;28;20130;-76
2022/03/31 06:43:04;;;;;;;11.48;8.00;;;13.60;67.60;;;;;;4989982;28;20045;-78
2022/03/31 06:45:31;;;;;;;10.85;7.68;;;13.60;67.50;;;;;;4986470;28;20030;-79
2022/03/31 06:47:58;;;;;;;11.35;7.35;;;13.60;67.40;;;;;;5009372;28;20021;-75
2022/03/31 06:50:24;;;;;;;11.73;7.90;;;13.60;67.30;;;;;;4991950;28;20134;-74
2022/03/31 06:52:50;;;;;;;10.32;7.68;;;13.60;67.20;;;;;;4993455;28;20116;-75
2022/03/31 06:55:15;;;;;;;11.95;8.10;;;13.60;67.10;;;;;;4995415;28;20735;-74
2022/03/31 06:57:41;;;;;;;14.25;8.93;;;13.60;67.00;;;;;;5012897;28;20113;-75
2022/03/31 07:00:07;;;;;;;11.82;8.75;;;13.60;66.90;;;;;;5009190;28;20038;-76
2022/03/31 07:02:33;;;;;;;12.70;8.90;;;13.60;66.80;;;;;;5013201;28;20037;-75
2022/03/31 07:04:59;;;;;;;12.63;8.73;;;13.60;66.70;;;;;;5012700;28;20106;-79
2022/03/31 07:07:24;;;;;;;13.77;9.38;;;13.60;66.60;;;;;;4995081;28;20025;-74
2022/03/31 07:09:51;;;;;;;14.15;10.65;;;13.60;66.50;;;;;;4995545;28;20069;-78
2022/03/31 07:12:17;;;;;;;13.98;9.73;;;13.60;66.50;;;;;;5012234;28;20624;-74
2022/03/31 07:14:43;;;;;;;17.15;9.95;;;13.60;66.30;;;;;;5015233;28;20492;-72
2022/03/31 07:17:10;;;;;;;34.70;11.93;;;13.60;66.40;;;;;;4997633;28;20033;-76
2022/03/31 07:19:35;;;;;;;18.50;10.70;;;13.60;66.20;;;;;;5014563;28;20030;-74
2022/03/31 07:22:02;;;;;;;17.95;11.18;;;13.60;66.30;;;;;;5014418;28;20117;-72
2022/03/31 07:24:27;;;;;;;15.77;10.68;;;13.50;66.40;;;;;;4996730;28;20493;-72
2022/03/31 07:26:53;;;;;;;14.23;10.57;;;13.50;66.60;;;;;;5014004;28;20033;-72
2022/03/31 07:29:18;;;;;;;14.27;11.20;;;13.50;66.70;;;;;;4996650;28;20034;-74
2022/03/31 07:31:44;;;;;;;15.10;11.20;;;13.50;66.70;;;;;;5014302;28;20084;-73
2022/03/31 07:34:10;;;;;;;16.33;11.07;;;13.40;66.70;;;;;;4996650;28;20553;-75
2022/03/31 07:36:35;;;;;;;18.13;12.27;;;13.50;66.80;;;;;;5013971;28;20032;-74
2022/03/31 07:39:01;;;;;;;15.70;11.77;;;13.50;66.80;;;;;;5014268;28;20030;-73
2022/03/31 07:41:26;;;;;;;16.70;11.73;;;13.40;66.70;;;;;;4996570;28;20033;-75
2022/03/31 07:43:52;;;;;;;16.75;11.95;;;13.40;66.60;;;;;;5014144;28;20049;-75
2022/03/31 07:46:18;;;;;;;16.60;12.02;;;13.40;66.50;;;;;;5013910;28;20030;-73
2022/03/31 07:48:43;;;;;;;15.88;12.15;;;13.40;66.50;;;;;;5013840;28;20026;-72
2022/03/31 07:51:09;;;;;;;18.80;12.85;;;13.40;66.50;;;;;;4996215;28;20504;-75
2022/03/31 07:53:34;;;;;;;17.00;12.55;;;13.40;66.50;;;;;;4996193;28;20033;-74
2022/03/31 07:56:02;;;;;;;20.88;13.10;;;13.40;66.60;;;;;;4996477;28;20029;-74
2022/03/31 07:58:28;;;;;;;18.05;12.95;;;13.40;66.50;;;;;;5013620;28;20030;-74
2022/03/31 08:00:54;;;;;;;17.40;12.52;;;13.40;66.40;;;;;;5014035;28;20519;-76
2022/03/31 08:03:20;;;;;;;17.65;13.25;;;13.40;66.30;;;;;;5014228;28;20537;-77
2022/03/31 08:05:46;;;;;;;18.55;13.38;;;13.40;66.20;;;;;;4995727;28;20722;-75
2022/03/31 08:08:12;;;;;;;18.85;13.27;;;13.40;66.20;;;;;;4996036;28;20022;-75
2022/03/31 08:10:38;;;;;;;18.85;13.50;;;13.40;66.20;;;;;;5013897;28;20026;-76
2022/03/31 08:13:04;;;;;;;25.27;17.00;;;13.40;66.10;;;;;;4996203;28;20045;-76
2022/03/31 08:15:30;;;;;;;25.40;17.52;;;13.30;63.60;;;;;;5013796;28;20036;-75
2022/03/31 08:17:58;;;;;;;27.75;17.15;;;13.20;63.80;;;;;;5013228;28;20599;-76
2022/03/31 08:20:25;;;;;;;24.02;16.08;;;13.20;64.20;;;;;;5013760;28;20485;-75
2022/03/31 08:22:51;;;;;;;22.55;15.95;;;13.20;64.80;;;;;;4996090;28;20620;-75
2022/03/31 08:25:17;;;;;;;20.88;15.18;;;13.20;65.20;;;;;;4996047;28;20018;-76
2022/03/31 08:27:44;;;;;;;20.48;15.73;;;13.30;65.40;;;;;;5013138;28;20401;-75
2022/03/31 08:30:13;;;;;;;20.02;14.85;;;13.30;65.60;;;;;;4995929;28;20033;-76
2022/03/31 08:32:42;;;;;;;22.17;15.35;;;13.30;65.70;;;;;;4995890;28;20026;-76
2022/03/31 08:35:09;;;;;;;21.52;15.02;;;13.30;65.80;;;;;;4995676;28;20568;-75
2022/03/31 08:37:35;;;;;;;18.73;14.40;;;13.30;65.90;;;;;;5012924;28;20107;-75
2022/03/31 08:40:01;;;;;;;19.27;14.50;;;13.30;66.00;;;;;;4995519;28;20037;-76
2022/03/31 08:42:27;;;;;;;18.50;14.43;;;13.30;66.00;;;;;;5013259;28;20082;-76
2022/03/31 08:44:56;;;;;;;20.38;14.55;;;13.20;66.00;;;;;;5013117;28;20061;-76
2022/03/31 08:47:22;;;;;;;21.65;15.13;;;13.30;66.00;;;;;;5012820;28;20032;-76
2022/03/31 08:49:48;;;;;;;20.88;15.43;;;13.20;66.00;;;;;;4995625;28;20409;-75
2022/03/31 08:52:14;;;;;;;22.15;15.38;;;13.20;66.00;;;;;;5013203;28;20029;-75
2022/03/31 08:54:41;;;;;;;20.75;15.73;;;13.20;66.10;;;;;;5012803;28;20033;-75
2022/03/31 08:57:06;;;;;;;20.63;15.52;;;13.20;66.10;;;;;;5012443;28;20030;-76
2022/03/31 08:59:32;;;;;;;20.98;15.02;;;13.20;66.10;;;;;;5012711;28;20040;-75
2022/03/31 09:01:58;;;;;;;21.40;15.32;;;13.20;66.10;;;;;;4995199;28;20077;-76
2022/03/31 09:04:24;;;;;;;20.73;15.60;;;13.20;66.00;;;;;;4994863;28;20444;-76
2022/03/31 09:07:08;;;;;;;18.88;14.77;;;13.20;65.90;;;;;;4994702;28;20026;-76
2022/03/31 09:09:51;;;;;;;22.60;16.05;;;13.20;65.90;;;;;;5012710;28;20451;-75
2022/03/31 09:12:17;;;;;;;20.50;15.68;;;13.20;65.90;;;;;;4995066;28;20037;-76
2022/03/31 09:14:43;;;;;;;21.40;16.10;;;13.20;65.80;;;;;;5012498;28;20052;-76
2022/03/31 09:17:11;;;;;;;19.98;15.52;;;13.20;65.90;;;;;;5011487;28;20061;-75
2022/03/31 09:19:37;;;;;;;20.90;15.25;;;13.20;66.00;;;;;;5012533;28;20061;-75
2022/03/31 09:22:02;;;;;;;20.23;14.93;;;13.20;66.10;;;;;;5012403;28;20029;-75
2022/03/31 09:24:30;;;;;;;19.60;15.00;;;13.20;66.20;;;;;;5012598;28;20037;-76
2022/03/31 09:26:58;;;;;;;19.75;15.55;;;13.20;66.30;;;;;;5011918;28;20474;-75
2022/03/31 09:29:26;;;;;;;22.38;16.20;;;13.20;66.40;;;;;;5012312;28;20045;-75
2022/03/31 09:31:52;;;;;;;22.67;15.70;;;13.20;65.90;;;;;;4994607;28;20030;-75
2022/03/31 09:34:18;;;;;;;22.30;15.88;;;13.10;65.50;;;;;;5013023;28;20095;-76
2022/03/31 09:36:49;;;;;;;21.42;15.88;;;13.20;65.60;;;;;;4990748;28;20030;-75
2022/03/31 09:39:17;;;;;;;19.83;14.60;;;13.20;65.80;;;;;;5021071;28;20025;-76
2022/03/31 09:41:47;;;;;;;88.22;19.98;;;13.20;66.10;;;;;;5031763;28;20021;-75
2022/03/31 09:44:15;;;;;;;58.10;17.00;;;13.20;66.30;;;;;;5015740;28;20026;-75
2022/03/31 09:46:42;;;;;;;49.03;16.42;;;13.20;66.30;;;;;;5011834;28;20405;-74
2022/03/31 09:49:12;;;;;;;35.45;16.65;;;13.30;66.20;;;;;;5012065;28;20052;-75
2022/03/31 09:51:38;;;;;;;39.35;15.38;;;13.40;66.30;;;;;;5010620;28;20393;-75
2022/03/31 09:54:04;;;;;;;35.50;16.13;;;13.40;66.20;;;;;;5025575;28;20034;-75
2022/03/31 09:56:34;;;;;;;34.40;15.68;;;13.50;66.00;;;;;;5030843;28;20025;-75
2022/03/31 09:59:02;;;;;;;30.77;16.42;;;13.50;66.00;;;;;;5030535;28;20032;-76
2022/03/31 10:01:28;;;;;;;33.08;15.85;;;13.50;66.00;;;;;;5031336;28;20025;-75
2022/03/31 10:03:56;;;;;;;33.53;15.55;;;13.50;65.80;;;;;;5031707;28;20094;-75
2022/03/31 10:06:24;;;;;;;27.65;14.90;;;13.50;65.90;;;;;;5031344;28;20025;-76
2022/03/31 10:08:50;;;;;;;31.88;15.07;;;13.50;65.90;;;;;;5031651;28;20029;-75
2022/03/31 10:11:19;;;;;;;28.48;15.43;;;13.50;65.90;;;;;;5031654;28;20034;-75
2022/03/31 10:14:16;;;;;;;31.95;15.52;;;13.60;65.90;;;;;;5031558;28;20034;-76
2022/03/31 10:17:05;;;;;;;27.70;15.20;;;13.60;65.90;;;;;;5013498;28;20415;-76
2022/03/31 10:19:36;;;;;;;26.33;15.48;;;13.60;66.00;;;;;;5014062;28;20061;-76
2022/03/31 10:22:10;;;;;;;27.70;14.18;;;13.60;65.90;;;;;;5031524;28;20542;-75
2022/03/31 10:24:42;;;;;;;25.52;15.00;;;13.60;65.90;;;;;;5031594;28;20438;-76
2022/03/31 10:27:09;;;;;;;22.30;14.52;;;13.60;65.90;;;;;;5032626;28;20048;-78
2022/03/31 10:29:39;;;;;;;24.58;14.52;;;13.60;66.00;;;;;;5035800;28;20025;-75
2022/03/31 10:32:17;;;;;;;23.63;14.23;;;13.60;66.10;;;;;;5035437;28;20496;-74
2022/03/31 10:34:47;;;;;;;25.80;14.90;;;13.60;66.30;;;;;;5035168;28;20029;-75
2022/03/31 10:37:12;;;;;;;22.88;14.05;;;13.60;66.20;;;;;;5034956;28;20076;-76
2022/03/31 10:39:38;;;;;;;22.95;13.82;;;13.60;66.40;;;;;;5035236;28;20121;-76
2022/03/31 10:42:07;;;;;;;21.77;14.13;;;13.60;66.10;;;;;;5035176;28;20112;-75
2022/03/31 10:44:33;;;;;;;18.65;13.65;;;13.60;66.10;;;;;;5035006;28;20475;-75
2022/03/31 10:47:07;;;;;;;22.40;14.50;;;13.60;66.20;;;;;;5016921;28;20484;-75
2022/03/31 10:49:34;;;;;;;23.13;14.27;;;13.60;66.40;;;;;;5017424;28;20116;-76
2022/03/31 10:52:17;;;;;;;20.55;13.77;;;13.60;66.80;;;;;;5034994;28;20104;-76
2022/03/31 10:54:43;;;;;;;21.13;13.45;;;13.60;66.30;;;;;;5034926;28;20056;-75
2022/03/31 10:57:13;;;;;;;20.98;14.48;;;13.60;66.30;;;;;;5034756;28;20031;-75
2022/03/31 10:59:40;;;;;;;21.23;13.90;;;13.60;66.50;;;;;;5034154;28;20036;-75
2022/03/31 11:02:21;;;;;;;21.85;13.40;;;13.60;66.30;;;;;;5035081;28;20473;-75
2022/03/31 11:04:51;;;;;;;21.38;13.90;;;13.60;66.40;;;;;;5017058;28;20108;-75
2022/03/31 11:07:20;;;;;;;21.73;13.30;;;13.60;66.50;;;;;;5016687;28;20025;-75
2022/03/31 11:09:47;;;;;;;23.52;13.52;;;13.60;66.20;;;;;;5034951;28;20384;-76
2022/03/31 11:12:28;;;;;;;20.08;13.88;;;13.60;66.20;;;;;;5034667;28;20036;-75
2022/03/31 11:14:55;;;;;;;21.08;13.13;;;13.60;66.30;;;;;;5006018;28;20087;-75
2022/03/31 11:17:22;;;;;;;18.42;13.40;;;13.60;66.40;;;;;;4994364;28;20034;-77
2022/03/31 11:19:48;;;;;;;19.88;13.07;;;13.60;66.40;;;;;;5013852;28;20037;-75
2022/03/31 11:22:21;;;;;;;20.63;13.05;;;13.60;66.60;;;;;;4999915;28;20026;-75
2022/03/31 11:24:46;;;;;;;18.85;12.35;;;13.60;66.50;;;;;;5014144;28;20026;-74
2022/03/31 11:27:12;;;;;;;19.08;13.05;;;13.60;65.90;;;;;;5003453;28;20022;-75
2022/03/31 11:29:38;;;;;;;17.65;12.40;;;13.70;66.30;;;;;;5034320;28;20093;-76
2022/03/31 11:32:05;;;;;;;19.70;13.43;;;13.60;66.20;;;;;;5034040;28;20023;-75
2022/03/31 11:34:30;;;;;;;19.15;12.73;;;13.70;66.30;;;;;;5016116;28;20036;-76
2022/03/31 11:36:57;;;;;;;17.02;12.65;;;13.70;66.20;;;;;;5033750;28;20025;-76
2022/03/31 11:39:28;;;;;;;20.00;12.95;;;13.70;66.30;;;;;;5012021;28;20037;-76
2022/03/31 11:41:55;;;;;;;24.17;13.10;;;13.70;66.40;;;;;;5012401;28;20126;-76
2022/03/31 11:44:22;;;;;;;19.13;13.13;;;13.70;67.00;;;;;;5014091;28;20547;-76
2022/03/31 11:46:49;;;;;;;17.98;12.40;;;13.60;66.50;;;;;;5014118;28;20033;-76
2022/03/31 11:49:15;;;;;;;28.20;13.70;;;13.70;66.50;;;;;;5013010;28;20022;-75
2022/03/31 11:51:46;;;;;;;28.58;12.23;;;13.70;66.90;;;;;;5014335;28;20025;-76
2022/03/31 11:54:12;;;;;;;30.13;12.82;;;13.60;66.80;;;;;;5014120;28;20034;-76
2022/03/31 11:56:37;;;;;;;192.48;23.02;;;13.70;66.70;;;;;;5013868;28;20032;-77
2022/03/31 11:59:05;;;;;;;457.83;40.60;;;13.60;66.60;;;;;;5015317;28;20049;-77
2022/03/31 12:01:43;;;;;;;510.13;48.15;;;13.60;66.10;;;;;;5016395;28;20112;-76
2022/03/31 12:04:19;;;;;;;503.40;47.33;;;13.60;66.50;;;;;;5034104;28;20507;-78
2022/03/31 12:06:47;;;;;;;454.35;41.95;;;13.60;66.50;;;;;;5015886;28;20116;-76
2022/03/31 12:09:13;;;;;;;437.33;39.60;;;13.60;66.50;;;;;;5011125;28;20041;-75
2022/03/31 12:11:39;;;;;;;436.25;38.40;;;13.60;66.80;;;;;;5015372;28;20022;-78
2022/03/31 12:14:04;;;;;;;358.73;32.85;;;13.70;66.80;;;;;;5013640;28;20045;-77
2022/03/31 12:16:40;;;;;;;360.05;34.25;;;13.60;66.60;;;;;;4995705;28;20397;-77
2022/03/31 12:19:06;;;;;;;310.05;32.92;;;13.60;66.60;;;;;;5013938;28;20077;-77
2022/03/31 12:21:32;;;;;;;318.45;29.77;;;13.60;66.80;;;;;;5013850;28;20424;-77
2022/03/31 12:24:02;;;;;;;315.90;30.60;;;13.60;66.80;;;;;;4996483;28;20488;-77
2022/03/31 12:26:27;;;;;;;280.85;29.92;;;13.60;66.80;;;;;;5018320;28;20017;-77
2022/03/31 12:28:53;;;;;;;291.67;30.95;;;13.60;66.60;;;;;;5033706;28;20052;-76
2022/03/31 12:31:29;;;;;;;315.08;29.35;;;13.60;66.50;;;;;;5033600;28;20392;-77
2022/03/31 12:33:56;;;;;;;258.90;28.33;;;13.60;66.60;;;;;;5031796;28;20025;-77
2022/03/31 12:36:26;;;;;;;277.42;27.88;;;13.70;66.40;;;;;;5031584;28;20176;-77